Time;durP1;ratioP1;P1;durP2;ratioP2;P2;SDS_P1;SDS_P2;PMS_P1;PMS_P2;Temp;Humidity;BMP_temperature;BMP_pressure;BME280_temperature;BME280_humidity;BME280_pressure;Samples;Min_cycle;Max_cycle;Signal;HPM_P1;HPM_P2
2023/09/25 00:00:20;;;;;;;10.00;3.63;;;;;;;21.11;68.35;93601.59;528635;28;782;-42
2023/09/25 00:00:35;;;;;;;9.25;3.58;;;;;;;21.12;68.28;93605.16;528571;28;836;-42
2023/09/25 00:00:51;;;;;;;4.68;3.30;;;;;;;21.11;68.30;93610.03;528603;28;872;-42
2023/09/25 00:01:06;;;;;;;4.90;3.53;;;;;;;21.11;68.32;93606.50;528553;28;919;-42
2023/09/25 00:01:21;;;;;;;4.93;3.70;;;;;;;21.10;68.30;93607.84;528630;28;836;-42
2023/09/25 00:01:37;;;;;;;4.78;3.80;;;;;;;21.10;68.40;93614.19;528582;28;919;-42
2023/09/25 00:01:52;;;;;;;6.13;3.90;;;;;;;21.10;68.34;93610.66;528573;28;800;-42
2023/09/25 00:02:07;;;;;;;6.80;3.80;;;;;;;21.09;68.36;93609.19;528613;28;871;-42
2023/09/25 00:02:23;;;;;;;7.50;4.00;;;;;;;21.09;68.44;93609.19;528556;27;880;-42
2023/09/25 00:02:38;;;;;;;7.43;3.90;;;;;;;21.09;68.36;93612.00;528654;28;872;-42
2023/09/25 00:02:53;;;;;;;5.77;3.60;;;;;;;21.08;68.58;93608.47;528544;28;1108;-42
2023/09/25 00:03:09;;;;;;;5.47;3.72;;;;;;;20.94;68.59;93592.84;528658;28;809;-42
2023/09/25 00:03:24;;;;;;;4.30;3.80;;;;;;;21.05;68.74;93618.09;528495;27;861;-42
2023/09/25 00:03:40;;;;;;;5.07;3.95;;;;;;;21.07;68.83;93614.69;528574;28;972;-42
2023/09/25 00:03:55;;;;;;;5.30;3.60;;;;;;;21.06;68.97;93610.41;528577;27;872;-42
2023/09/25 00:04:11;;;;;;;5.37;3.63;;;;;;;21.06;68.99;93611.16;528685;28;860;-42
2023/09/25 00:04:28;;;;;;;4.70;3.75;;;;;;;21.07;69.03;93607.00;528555;28;933;-42
2023/09/25 00:04:43;;;;;;;4.60;3.30;;;;;;;21.07;69.04;93609.09;528531;28;955;-42
2023/09/25 00:04:59;;;;;;;5.60;3.30;;;;;;;21.06;68.93;93607.59;528653;28;788;-42
2023/09/25 00:05:16;;;;;;;5.85;3.95;;;;;;;21.08;68.82;93610.53;528549;28;840;-42
2023/09/25 00:05:31;;;;;;;6.13;3.75;;;;;;;21.05;68.78;93606.16;528609;28;963;-42
2023/09/25 00:05:47;;;;;;;4.80;3.60;;;;;;;20.95;68.99;93603.47;528586;28;864;-42
2023/09/25 00:06:04;;;;;;;4.60;3.42;;;;;;;21.09;68.85;93609.91;528590;28;907;-42
2023/09/25 00:06:19;;;;;;;5.63;3.38;;;;;;;21.09;68.88;93614.81;528615;28;892;-42
2023/09/25 00:06:35;;;;;;;6.73;4.20;;;;;;;21.09;68.80;93607.09;528548;28;796;-42
2023/09/25 00:06:51;;;;;;;5.73;4.40;;;;;;;21.09;68.86;93612.72;528546;28;927;-42
2023/09/25 00:07:06;;;;;;;5.30;3.88;;;;;;;21.10;68.81;93616.25;528607;27;844;-42
2023/09/25 00:07:21;;;;;;;5.22;3.45;;;;;;;21.10;68.88;93619.06;528598;28;927;-42
2023/09/25 00:07:38;;;;;;;5.40;3.50;;;;;;;21.09;68.95;93612.72;528571;28;860;-42
2023/09/25 00:07:54;;;;;;;5.60;3.75;;;;;;;21.10;68.82;93610.66;528629;28;911;-42
2023/09/25 00:08:09;;;;;;;5.10;3.97;;;;;;;21.10;68.93;93616.25;528636;28;852;-42
2023/09/25 00:08:25;;;;;;;5.18;3.90;;;;;;;21.10;68.86;93610.66;528563;28;836;-42
2023/09/25 00:08:40;;;;;;;4.90;3.47;;;;;;;21.10;68.86;93614.19;528626;28;927;-42
2023/09/25 00:08:55;;;;;;;4.93;3.53;;;;;;;21.10;68.91;93611.38;528604;28;855;-42
2023/09/25 00:09:11;;;;;;;6.07;3.70;;;;;;;21.10;68.88;93613.44;528617;27;938;-42
2023/09/25 00:09:27;;;;;;;5.80;3.50;;;;;;;21.09;68.77;93615.53;528522;28;892;-42
2023/09/25 00:09:42;;;;;;;4.13;3.15;;;;;;;21.10;68.73;93613.44;528501;28;1027;-42
2023/09/25 00:09:58;;;;;;;4.55;3.42;;;;;;;21.09;68.71;93614.81;528599;28;872;-42
2023/09/25 00:10:13;;;;;;;5.50;3.67;;;;;;;21.09;68.71;93612.00;528595;28;880;-42
2023/09/25 00:10:31;;;;;;;5.17;3.50;;;;;;;21.08;68.68;93614.06;528571;28;1079;-42
2023/09/25 00:10:46;;;;;;;5.68;3.78;;;;;;;21.08;68.60;93613.34;528466;28;966;-42
2023/09/25 00:11:03;;;;;;;6.17;3.50;;;;;;;21.08;68.71;93613.34;528541;28;839;-42
2023/09/25 00:11:18;;;;;;;6.40;3.40;;;;;;;21.07;68.66;93609.78;528594;28;912;-42
2023/09/25 00:11:34;;;;;;;5.17;3.40;;;;;;;21.07;68.65;93615.41;528475;28;1075;-42
2023/09/25 00:11:49;;;;;;;4.50;3.28;;;;;;;21.08;68.62;93614.06;528601;28;1159;-42
2023/09/25 00:12:05;;;;;;;4.53;3.60;;;;;;;21.08;68.63;93616.88;528529;28;931;-42
2023/09/25 00:12:21;;;;;;;5.45;3.55;;;;;;;21.09;68.60;93609.19;528613;28;813;-42
2023/09/25 00:12:37;;;;;;;5.45;3.50;;;;;;;21.08;68.49;93619.69;528535;28;1646;-42
2023/09/25 00:12:52;;;;;;;8.00;3.87;;;;;;;21.08;68.48;93608.47;528534;28;867;-42
2023/09/25 00:13:08;;;;;;;6.95;3.50;;;;;;;21.09;68.42;93614.81;528546;28;1140;-42
2023/09/25 00:13:23;;;;;;;5.00;3.67;;;;;;;21.09;68.40;93615.53;528525;28;872;-42
2023/09/25 00:13:39;;;;;;;6.67;4.13;;;;;;;21.08;68.34;93604.91;528475;28;864;-42
2023/09/25 00:13:54;;;;;;;6.07;3.67;;;;;;;21.08;68.38;93611.28;528596;28;848;-42
2023/09/25 00:14:09;;;;;;;4.50;3.22;;;;;;;21.08;68.29;93611.28;528589;28;832;-42
2023/09/25 00:14:25;;;;;;;4.40;3.23;;;;;;;20.84;68.05;93575.41;528538;28;908;-42
2023/09/25 00:14:40;;;;;;;4.90;3.60;;;;;;;21.07;68.08;93609.09;528672;28;797;-42
2023/09/25 00:14:56;;;;;;;6.10;3.80;;;;;;;21.08;68.16;93611.28;528549;28;812;-42
2023/09/25 00:15:11;;;;;;;5.90;3.97;;;;;;;21.08;68.20;93621.75;528558;28;868;-42
2023/09/25 00:15:26;;;;;;;4.63;3.80;;;;;;;21.08;68.25;93616.88;528628;28;821;-42
2023/09/25 00:15:44;;;;;;;5.43;3.40;;;;;;;21.07;68.16;93614.69;528523;28;860;-42
2023/09/25 00:16:00;;;;;;;6.10;3.50;;;;;;;21.06;68.27;93611.16;528528;28;876;-42
2023/09/25 00:16:16;;;;;;;5.68;3.83;;;;;;;21.07;68.16;93623.13;528493;28;903;-42
2023/09/25 00:16:32;;;;;;;4.80;3.40;;;;;;;21.01;68.18;93615.03;528525;28;971;-42
2023/09/25 00:16:47;;;;;;;5.68;3.40;;;;;;;21.06;68.33;93619.56;528425;28;863;-42
2023/09/25 00:17:02;;;;;;;6.43;3.60;;;;;;;21.07;68.28;93628.75;528360;28;1148;-42
2023/09/25 00:17:18;;;;;;;5.80;3.33;;;;;;;21.05;68.13;93623.72;528444;28;853;-42
2023/09/25 00:17:33;;;;;;;5.00;3.38;;;;;;;21.06;68.13;93613.97;528280;28;884;-42
2023/09/25 00:17:48;;;;;;;6.20;3.80;;;;;;;21.05;68.04;93620.91;528461;28;892;-42
2023/09/25 00:18:04;;;;;;;6.72;3.80;;;;;;;21.07;67.96;93623.13;528345;28;939;-42
2023/09/25 00:18:19;;;;;;;6.07;3.95;;;;;;;21.05;67.80;93629.34;528412;28;844;-43
2023/09/25 00:18:35;;;;;;;5.80;4.00;;;;;;;21.06;68.09;93628.00;528342;28;908;-42
2023/09/25 00:18:51;;;;;;;7.00;3.50;;;;;;;21.07;67.88;93623.84;528612;28;1104;-42
2023/09/25 00:19:06;;;;;;;6.85;3.47;;;;;;;21.05;67.82;93626.53;528562;28;979;-42
2023/09/25 00:19:22;;;;;;;3.60;3.30;;;;;;;21.05;67.79;93628.63;528590;28;778;-42
2023/09/25 00:19:37;;;;;;;3.23;2.93;;;;;;;21.05;67.74;93623.72;528495;28;1563;-42
2023/09/25 00:19:52;;;;;;;7.05;3.13;;;;;;;21.05;67.90;93625.81;528429;27;938;-42
2023/09/25 00:20:10;;;;;;;8.47;3.50;;;;;;;21.05;67.81;93631.44;528474;28;927;-42
2023/09/25 00:20:25;;;;;;;8.05;3.63;;;;;;;21.04;67.85;93630.69;528504;28;1640;-42
2023/09/25 00:20:41;;;;;;;6.40;3.43;;;;;;;21.04;67.92;93629.94;528521;28;948;-42
2023/09/25 00:20:56;;;;;;;5.90;3.57;;;;;;;21.03;68.02;93631.28;528455;28;946;-42
2023/09/25 00:21:12;;;;;;;7.85;3.78;;;;;;;21.02;67.96;93630.53;528485;28;887;-42
2023/09/25 00:21:27;;;;;;;7.47;4.03;;;;;;;20.99;68.04;93619.78;528606;28;833;-42
2023/09/25 00:21:43;;;;;;;4.77;3.83;;;;;;;21.01;68.09;93629.06;528500;28;947;-42
2023/09/25 00:21:58;;;;;;;4.32;3.13;;;;;;;21.02;68.12;93624.94;528503;28;976;-42
2023/09/25 00:22:13;;;;;;;7.03;3.25;;;;;;;21.02;68.05;93619.31;528519;28;809;-42
2023/09/25 00:22:30;;;;;;;7.20;3.35;;;;;;;21.02;68.04;93621.38;528564;27;884;-42
2023/09/25 00:22:46;;;;;;;4.97;3.30;;;;;;;21.02;68.21;93627.75;528431;28;953;-42
2023/09/25 00:23:01;;;;;;;6.80;3.67;;;;;;;21.00;67.96;93619.19;528597;28;1207;-42
2023/09/25 00:23:17;;;;;;;7.18;3.78;;;;;;;21.00;67.97;93624.06;528523;28;876;-42
2023/09/25 00:23:32;;;;;;;4.93;3.43;;;;;;;21.00;67.94;93618.47;528559;28;786;-42
2023/09/25 00:23:48;;;;;;;5.13;3.50;;;;;;;20.97;68.05;93620.41;528587;28;803;-42
2023/09/25 00:24:03;;;;;;;5.55;3.70;;;;;;;20.97;68.10;93626.03;528586;28;840;-42
2023/09/25 00:24:19;;;;;;;4.93;3.77;;;;;;;20.96;68.08;93621.75;528522;27;793;-42
2023/09/25 00:24:34;;;;;;;6.25;3.85;;;;;;;20.96;68.05;93626.66;528554;28;809;-42
2023/09/25 00:24:50;;;;;;;5.70;3.27;;;;;;;20.96;68.12;93618.22;528590;27;769;-42
2023/09/25 00:25:06;;;;;;;4.10;3.00;;;;;;;20.96;68.11;93621.75;528470;28;1103;-42
2023/09/25 00:25:24;;;;;;;3.80;3.35;;;;;;;20.96;68.17;93621.75;528498;28;861;-42
2023/09/25 00:25:40;;;;;;;3.67;3.33;;;;;;;20.96;68.01;93618.94;528595;28;805;-42
2023/09/25 00:26:08;;;;;;;3.92;3.53;;;;;;;20.96;67.98;93623.84;527994;28;1081;-42
2023/09/25 00:26:24;;;;;;;5.07;3.45;;;;;;;20.92;67.85;93620.81;527403;28;1155;-42
2023/09/25 00:26:39;;;;;;;6.07;3.60;;;;;;;20.91;67.97;93622.13;527616;28;1053;-42
2023/09/25 00:26:55;;;;;;;6.43;3.90;;;;;;;20.89;67.85;93617.16;526409;28;1089;-42
2023/09/25 00:27:10;;;;;;;6.20;3.93;;;;;;;20.90;67.86;93618.59;527300;28;1328;-42
2023/09/25 00:27:26;;;;;;;7.45;3.70;;;;;;;20.89;67.93;93617.16;528426;28;900;-42
2023/09/25 00:27:42;;;;;;;6.70;3.90;;;;;;;20.86;67.98;93609.94;528487;28;1644;-42
2023/09/25 00:28:02;;;;;;;4.27;3.87;;;;;;;20.89;67.91;93616.41;528282;27;2005;-42
2023/09/25 00:28:17;;;;;;;3.58;3.28;;;;;;;20.89;67.98;93619.94;528476;28;939;-42
2023/09/25 00:28:33;;;;;;;3.85;3.25;;;;;;;20.89;67.99;93616.41;528447;28;911;-42
2023/09/25 00:28:48;;;;;;;4.63;3.50;;;;;;;20.84;67.96;93615.44;528542;28;773;-42
2023/09/25 00:29:04;;;;;;;6.00;3.80;;;;;;;20.81;67.90;93613.84;528495;28;888;-42
2023/09/25 00:29:19;;;;;;;6.57;3.88;;;;;;;20.80;68.06;93617.28;528518;28;880;-42
2023/09/25 00:29:35;;;;;;;4.87;3.80;;;;;;;20.79;68.11;93619.34;528485;28;837;-42
2023/09/25 00:29:50;;;;;;;5.15;3.63;;;;;;;20.80;68.12;93614.47;528517;28;889;-42
2023/09/25 00:30:07;;;;;;;5.07;3.37;;;;;;;20.79;68.13;93616.53;528442;28;912;-42
2023/09/25 00:30:23;;;;;;;4.57;3.30;;;;;;;20.79;68.14;93618.63;528533;28;829;-42
2023/09/25 00:30:39;;;;;;;5.20;3.42;;;;;;;20.77;68.07;93608.00;528537;28;836;-42
2023/09/25 00:30:54;;;;;;;4.30;3.53;;;;;;;20.77;68.19;93613.63;528433;28;873;-42
2023/09/25 00:31:10;;;;;;;4.40;3.77;;;;;;;20.77;68.16;93616.41;528509;28;950;-42
2023/09/25 00:31:25;;;;;;;6.18;3.95;;;;;;;20.77;68.04;93612.91;528434;28;865;-42
2023/09/25 00:31:41;;;;;;;5.57;3.60;;;;;;;20.76;68.08;93612.16;528561;28;829;-42
2023/09/25 00:31:56;;;;;;;4.20;3.55;;;;;;;20.77;68.09;93610.81;528528;28;801;-42
2023/09/25 00:32:12;;;;;;;4.38;3.58;;;;;;;20.77;68.14;93612.91;528514;28;872;-42
2023/09/25 00:32:28;;;;;;;6.97;3.50;;;;;;;20.77;68.12;93607.28;528521;28;1023;-42
2023/09/25 00:32:43;;;;;;;7.57;3.63;;;;;;;20.76;68.18;93612.16;528450;28;1168;-42
2023/09/25 00:32:59;;;;;;;4.60;3.53;;;;;;;20.77;68.09;93610.81;528573;27;876;-42
2023/09/25 00:33:14;;;;;;;4.40;3.50;;;;;;;20.76;68.12;93606.56;528437;28;896;-42
2023/09/25 00:33:30;;;;;;;5.47;3.40;;;;;;;20.76;68.15;93608.63;528590;27;762;-42
2023/09/25 00:33:45;;;;;;;4.70;3.30;;;;;;;20.76;68.09;93606.56;528521;28;781;-42
2023/09/25 00:34:00;;;;;;;3.20;2.90;;;;;;;20.76;68.09;93600.94;528559;28;953;-42
2023/09/25 00:34:16;;;;;;;4.43;3.17;;;;;;;20.76;67.97;93609.34;528454;28;978;-42
2023/09/25 00:34:31;;;;;;;7.20;4.17;;;;;;;20.77;68.50;93610.09;528563;28;817;-42
2023/09/25 00:34:47;;;;;;;5.88;3.97;;;;;;;20.77;68.03;93604.47;528511;28;824;-42
2023/09/25 00:35:07;;;;;;;4.00;3.23;;;;;;;20.76;68.16;93603.75;528449;28;884;-42
2023/09/25 00:35:22;;;;;;;4.38;3.22;;;;;;;20.76;68.08;93609.34;528521;28;891;-42
2023/09/25 00:35:41;;;;;;;7.00;3.50;;;;;;;20.76;68.06;93603.75;528529;28;829;-42
2023/09/25 00:35:56;;;;;;;6.90;3.55;;;;;;;20.78;67.79;93608.75;528541;28;845;-42
2023/09/25 00:36:11;;;;;;;4.20;3.20;;;;;;;20.78;67.92;93605.94;528462;28;788;-42
2023/09/25 00:36:27;;;;;;;4.63;3.17;;;;;;;20.78;67.91;93608.75;528550;28;781;-42
2023/09/25 00:36:44;;;;;;;5.37;3.40;;;;;;;20.77;67.96;93608.00;528466;28;868;-42
2023/09/25 00:36:59;;;;;;;9.07;3.50;;;;;;;20.77;67.94;93607.28;528544;28;895;-42
2023/09/25 00:37:14;;;;;;;9.43;3.60;;;;;;;20.77;67.64;93607.28;528484;28;844;-42
2023/09/25 00:37:30;;;;;;;5.40;3.25;;;;;;;20.77;67.60;93612.91;528500;28;892;-42
2023/09/25 00:37:46;;;;;;;7.03;3.27;;;;;;;20.76;67.65;93606.56;528519;28;801;-42
2023/09/25 00:38:03;;;;;;;8.20;3.53;;;;;;;20.76;67.82;93606.56;528446;28;979;-42
2023/09/25 00:38:22;;;;;;;6.28;3.40;;;;;;;20.76;67.70;93612.16;528611;28;844;-43
2023/09/25 00:38:37;;;;;;;3.90;3.00;;;;;;;20.75;67.84;93613.50;528510;28;1612;-42
2023/09/25 00:38:53;;;;;;;4.10;3.30;;;;;;;20.74;67.57;93609.25;528503;28;804;-42
2023/09/25 00:39:08;;;;;;;5.65;3.63;;;;;;;20.75;67.79;93615.56;528516;27;884;-42
2023/09/25 00:39:24;;;;;;;7.10;3.70;;;;;;;20.75;67.80;93610.69;528486;28;789;-42
2023/09/25 00:39:42;;;;;;;5.18;3.47;;;;;;;20.74;67.72;93603.63;528575;28;904;-42
2023/09/25 00:39:58;;;;;;;3.80;3.33;;;;;;;20.73;67.92;93616.19;528482;28;883;-42
2023/09/25 00:40:14;;;;;;;5.22;3.45;;;;;;;20.69;67.89;93598.38;528371;28;883;-42
2023/09/25 00:40:30;;;;;;;6.25;3.70;;;;;;;20.73;67.79;93613.38;528362;28;848;-42
2023/09/25 00:40:45;;;;;;;5.63;3.57;;;;;;;20.74;67.76;93608.50;528349;28;860;-42
2023/09/25 00:41:01;;;;;;;4.65;3.40;;;;;;;20.73;67.69;93615.44;528336;28;908;-42
2023/09/25 00:41:16;;;;;;;5.27;3.37;;;;;;;20.72;67.71;93616.81;528226;28;896;-42
2023/09/25 00:41:31;;;;;;;6.85;3.45;;;;;;;20.72;67.66;93611.94;528281;28;852;-42
2023/09/25 00:41:47;;;;;;;5.93;3.60;;;;;;;20.72;67.66;93611.19;528379;28;899;-42
2023/09/25 00:42:02;;;;;;;4.50;3.60;;;;;;;20.71;67.54;93613.25;528377;28;805;-42
2023/09/25 00:42:17;;;;;;;4.07;3.58;;;;;;;20.70;67.70;93611.81;528530;28;809;-42
2023/09/25 00:42:33;;;;;;;4.70;3.70;;;;;;;20.72;67.85;93611.19;528471;27;847;-42
2023/09/25 00:42:50;;;;;;;5.30;3.50;;;;;;;20.71;67.76;93607.66;528503;28;1135;-42
2023/09/25 00:43:05;;;;;;;4.97;3.30;;;;;;;20.71;67.77;93616.06;528413;28;856;-42
2023/09/25 00:43:21;;;;;;;6.38;3.55;;;;;;;20.71;67.80;93609.72;528522;28;1008;-42
2023/09/25 00:43:36;;;;;;;5.87;3.73;;;;;;;20.72;67.82;93616.81;528466;27;850;-42
2023/09/25 00:43:51;;;;;;;5.13;3.60;;;;;;;20.70;67.84;93609.00;528550;27;848;-42
2023/09/25 00:44:07;;;;;;;5.50;3.25;;;;;;;20.70;67.80;93606.19;528493;28;940;-42
2023/09/25 00:44:22;;;;;;;6.07;3.30;;;;;;;20.70;67.73;93608.28;528424;27;837;-42
2023/09/25 00:44:38;;;;;;;6.20;3.50;;;;;;;20.70;67.79;93605.47;528472;28;1037;-42
2023/09/25 00:44:53;;;;;;;6.90;3.55;;;;;;;20.69;67.63;93613.16;528503;28;1058;-42
2023/09/25 00:45:10;;;;;;;7.10;3.50;;;;;;;20.69;67.68;93613.16;528490;28;804;-42
2023/09/25 00:45:25;;;;;;;4.63;3.28;;;;;;;20.67;67.67;93613.03;528474;28;867;-42
2023/09/25 00:45:41;;;;;;;4.77;3.17;;;;;;;20.59;67.61;93595.72;528561;28;801;-42
2023/09/25 00:45:57;;;;;;;5.18;2.95;;;;;;;20.64;67.57;93605.81;528320;28;824;-42
2023/09/25 00:46:13;;;;;;;5.82;3.15;;;;;;;20.67;67.47;93609.47;528285;28;797;-42
2023/09/25 00:46:28;;;;;;;6.03;3.80;;;;;;;20.67;67.61;93609.47;528352;28;1005;-42
2023/09/25 00:46:43;;;;;;;5.40;3.73;;;;;;;20.66;67.56;93619.25;528314;28;809;-42
2023/09/25 00:46:59;;;;;;;4.67;3.30;;;;;;;20.65;67.64;93610.09;528329;28;883;-42
2023/09/25 00:47:15;;;;;;;6.20;3.58;;;;;;;20.64;67.53;93605.81;528264;28;837;-42
2023/09/25 00:47:30;;;;;;;5.63;3.57;;;;;;;20.64;67.61;93605.81;528364;28;942;-42
2023/09/25 00:47:46;;;;;;;5.85;3.40;;;;;;;20.64;67.36;93605.81;528300;28;824;-42
2023/09/25 00:48:02;;;;;;;7.67;3.43;;;;;;;20.64;67.50;93611.44;528264;28;1913;-42
2023/09/25 00:48:26;;;;;;;6.90;3.30;;;;;;;20.63;67.47;93609.25;528295;28;865;-42
2023/09/25 00:48:42;;;;;;;7.05;3.70;;;;;;;20.62;67.45;93608.50;528315;28;977;-42
2023/09/25 00:48:58;;;;;;;4.68;3.33;;;;;;;20.63;67.42;93610.00;528270;28;2418;-42
2023/09/25 00:49:14;;;;;;;3.35;3.05;;;;;;;20.63;67.48;93603.63;528296;28;932;-42
2023/09/25 00:49:31;;;;;;;4.28;3.15;;;;;;;20.62;67.46;93614.13;528331;28;985;-42
2023/09/25 00:49:46;;;;;;;6.13;3.30;;;;;;;20.62;67.44;93608.50;526251;28;867;-42
2023/09/25 00:50:03;;;;;;;4.97;3.30;;;;;;;20.62;67.55;93607.81;526207;28;1612;-42
2023/09/25 00:50:19;;;;;;;3.60;3.05;;;;;;;20.61;67.46;93609.88;526186;28;928;-42
2023/09/25 00:50:34;;;;;;;4.53;2.93;;;;;;;20.60;67.58;93610.47;526188;28;810;-42
2023/09/25 00:50:50;;;;;;;5.88;2.97;;;;;;;20.59;67.41;93604.13;524391;28;1181;-42
2023/09/25 00:51:06;;;;;;;4.97;2.80;;;;;;;20.59;67.41;93612.56;522032;28;842;-42
2023/09/25 00:51:21;;;;;;;6.32;3.35;;;;;;;20.58;67.36;93608.28;522045;28;867;-42
2023/09/25 00:51:37;;;;;;;6.90;3.53;;;;;;;20.58;67.35;93605.47;522709;28;846;-42
2023/09/25 00:51:53;;;;;;;4.10;3.22;;;;;;;20.58;67.32;93610.34;524118;28;873;-42
2023/09/25 00:52:09;;;;;;;4.30;3.33;;;;;;;20.57;67.35;93615.25;522069;28;830;-42
2023/09/25 00:52:25;;;;;;;4.25;3.15;;;;;;;20.56;67.28;93610.97;519985;28;810;-42
2023/09/25 00:52:42;;;;;;;3.90;3.10;;;;;;;20.56;67.43;93610.97;520648;28;806;-42
2023/09/25 00:53:09;;;;;;;4.40;3.25;;;;;;;20.56;67.13;93615.84;522993;28;913;-42
2023/09/25 00:53:28;;;;;;;4.70;3.40;;;;;;;20.55;67.13;93611.56;524100;28;908;-42
2023/09/25 00:53:45;;;;;;;4.07;3.25;;;;;;;20.55;67.11;93614.38;524083;28;1704;-42
2023/09/25 00:54:00;;;;;;;4.65;3.15;;;;;;;20.54;66.97;93613.66;525008;28;900;-42
2023/09/25 00:54:18;;;;;;;4.77;3.37;;;;;;;20.53;67.00;93623.38;526213;28;1010;-42
2023/09/25 00:54:33;;;;;;;3.58;3.20;;;;;;;20.52;67.00;93613.53;526198;28;864;-42
2023/09/25 00:54:49;;;;;;;4.77;3.20;;;;;;;20.53;67.00;93617.06;524071;28;1155;-42
2023/09/25 00:55:05;;;;;;;5.07;3.40;;;;;;;20.48;67.15;93613.28;524140;28;766;-42
2023/09/25 00:55:20;;;;;;;4.15;3.30;;;;;;;20.49;67.21;93611.94;524188;28;849;-42
2023/09/25 00:55:36;;;;;;;4.10;3.22;;;;;;;20.50;66.97;93619.03;524047;28;917;-42
2023/09/25 00:55:51;;;;;;;4.40;3.13;;;;;;;20.50;67.13;93616.22;524166;28;901;-42
2023/09/25 00:56:07;;;;;;;5.33;3.07;;;;;;;20.49;67.09;93617.53;524120;28;860;-42
2023/09/25 00:56:22;;;;;;;5.88;3.20;;;;;;;20.46;67.21;93613.16;522648;28;858;-42
2023/09/25 00:56:38;;;;;;;5.25;3.38;;;;;;;20.49;67.00;93616.84;524508;28;862;-42
2023/09/25 00:56:53;;;;;;;3.40;3.00;;;;;;;20.48;67.04;93616.09;524171;28;1120;-42
2023/09/25 00:57:10;;;;;;;4.03;2.72;;;;;;;20.46;67.11;93615.25;524075;28;883;-42
2023/09/25 00:57:26;;;;;;;4.50;3.15;;;;;;;20.47;66.96;93614.63;521999;28;837;-42
2023/09/25 00:57:43;;;;;;;3.78;3.03;;;;;;;20.46;67.09;93615.25;522126;28;786;-42
2023/09/25 00:57:59;;;;;;;4.00;2.80;;;;;;;20.46;66.97;93618.78;522061;28;904;-42
2023/09/25 00:58:14;;;;;;;4.22;3.05;;;;;;;20.45;67.04;93619.38;520819;28;878;-42
2023/09/25 00:58:30;;;;;;;4.37;3.10;;;;;;;20.46;67.06;93618.03;520005;28;856;-42
2023/09/25 00:58:45;;;;;;;4.30;2.92;;;;;;;20.42;66.88;93616.44;520719;28;944;-42
2023/09/25 00:59:01;;;;;;;4.30;3.10;;;;;;;20.45;67.01;93620.09;522104;28;813;-42
2023/09/25 00:59:17;;;;;;;6.43;3.25;;;;;;;20.45;67.03;93610.97;522020;28;825;-42
2023/09/25 00:59:32;;;;;;;6.47;3.00;;;;;;;20.44;66.96;93609.50;522063;28;872;-42
2023/09/25 00:59:48;;;;;;;4.00;2.80;;;;;;;20.44;67.12;93621.47;522426;28;1131;-42
2023/09/25 01:00:04;;;;;;;4.80;2.90;;;;;;;20.44;66.99;93620.72;524503;28;931;-42
2023/09/25 01:00:19;;;;;;;5.43;3.22;;;;;;;20.43;67.10;93614.38;526171;28;876;-42
2023/09/25 01:00:35;;;;;;;4.43;3.00;;;;;;;20.42;67.12;93613.63;526249;28;852;-42
2023/09/25 01:00:51;;;;;;;5.30;2.83;;;;;;;20.42;66.98;93613.63;526322;28;928;-42
2023/09/25 01:01:10;;;;;;;5.32;3.10;;;;;;;20.39;67.02;93611.34;526206;28;830;-42
2023/09/25 01:01:25;;;;;;;3.38;2.78;;;;;;;20.40;67.13;93613.53;526115;28;880;-42
2023/09/25 01:01:41;;;;;;;3.60;2.60;;;;;;;20.41;67.22;93608.66;524139;28;888;-42
2023/09/25 01:01:57;;;;;;;3.83;2.83;;;;;;;20.40;67.15;93612.78;524106;28;848;-42
2023/09/25 01:02:12;;;;;;;3.77;3.07;;;;;;;20.39;67.20;93617.69;524155;28;841;-42
2023/09/25 01:02:27;;;;;;;3.97;2.90;;;;;;;20.41;67.11;93614.25;524045;28;896;-42
2023/09/25 01:02:43;;;;;;;4.93;2.93;;;;;;;20.36;67.21;93613.28;524089;28;877;-42
2023/09/25 01:02:58;;;;;;;5.63;2.90;;;;;;;20.38;67.14;93610.59;525022;28;817;-42
2023/09/25 01:03:14;;;;;;;5.50;3.20;;;;;;;20.38;67.12;93616.22;526156;28;916;-42
2023/09/25 01:03:31;;;;;;;5.10;3.60;;;;;;;20.37;67.19;93617.56;526177;28;1589;-42
2023/09/25 01:03:47;;;;;;;4.07;3.03;;;;;;;20.38;67.17;93612.66;526364;28;904;-42
2023/09/25 01:04:03;;;;;;;4.60;2.90;;;;;;;20.36;67.04;93613.28;526366;28;869;-42
2023/09/25 01:04:20;;;;;;;3.87;2.70;;;;;;;20.37;67.27;93614.03;526352;28;1657;-42
2023/09/25 01:04:35;;;;;;;3.15;2.58;;;;;;;20.35;67.27;93614.63;526150;28;1104;-42
2023/09/25 01:04:51;;;;;;;3.55;2.80;;;;;;;20.34;67.21;93613.16;524191;28;902;-42
2023/09/25 01:05:10;;;;;;;3.73;2.90;;;;;;;20.36;67.25;93612.53;524032;28;907;-42
2023/09/25 01:05:25;;;;;;;3.65;3.00;;;;;;;20.35;67.15;93611.09;521928;28;1044;-42
2023/09/25 01:05:41;;;;;;;3.97;2.67;;;;;;;20.34;67.19;93609.63;522061;28;862;-42
2023/09/25 01:05:56;;;;;;;3.85;2.63;;;;;;;20.34;67.13;93606.81;522015;28;860;-42
2023/09/25 01:06:12;;;;;;;3.80;2.80;;;;;;;20.33;67.17;93608.91;521987;28;982;-42
2023/09/25 01:06:28;;;;;;;4.95;2.83;;;;;;;20.33;67.14;93608.91;522782;28;800;-42
2023/09/25 01:06:43;;;;;;;6.45;2.88;;;;;;;20.34;67.13;93613.16;524900;28;864;-42
2023/09/25 01:07:00;;;;;;;5.30;2.87;;;;;;;20.34;67.12;93609.63;526266;28;927;-42
2023/09/25 01:07:18;;;;;;;5.03;2.75;;;;;;;20.33;67.10;93606.09;527156;28;868;-42
2023/09/25 01:07:35;;;;;;;5.35;3.05;;;;;;;20.34;66.95;93604.00;528204;28;962;-42
2023/09/25 01:07:50;;;;;;;3.70;3.10;;;;;;;20.34;67.02;93609.63;528327;28;957;-43
2023/09/25 01:08:07;;;;;;;5.00;2.77;;;;;;;20.33;66.82;93610.97;528172;28;1969;-42
2023/09/25 01:08:23;;;;;;;6.03;2.90;;;;;;;20.33;66.88;93605.38;528219;28;1636;-42
2023/09/25 01:08:40;;;;;;;6.88;2.95;;;;;;;20.32;66.85;93612.31;528268;28;1598;-42
2023/09/25 01:08:55;;;;;;;6.50;2.90;;;;;;;20.32;66.84;93609.50;528245;28;813;-42
2023/09/25 01:09:12;;;;;;;4.45;2.90;;;;;;;20.31;66.77;93610.84;527002;28;945;-42
2023/09/25 01:09:27;;;;;;;4.85;2.70;;;;;;;20.30;66.83;93609.38;526316;28;857;-42
2023/09/25 01:09:43;;;;;;;4.70;2.63;;;;;;;20.30;66.82;93603.78;526343;28;836;-42
2023/09/25 01:10:10;;;;;;;4.80;2.83;;;;;;;20.30;66.83;93606.56;526137;28;1348;-42
2023/09/25 01:10:26;;;;;;;4.15;3.10;;;;;;;20.25;66.77;93599.25;526070;28;880;-42
2023/09/25 01:10:42;;;;;;;4.35;3.00;;;;;;;20.29;66.75;93613.53;526191;28;884;-42
2023/09/25 01:10:58;;;;;;;5.13;3.00;;;;;;;20.28;66.78;93610.00;526219;28;837;-42
2023/09/25 01:11:14;;;;;;;4.55;3.05;;;;;;;20.28;66.71;93610.00;526139;28;873;-42
2023/09/25 01:11:29;;;;;;;4.95;2.72;;;;;;;20.27;66.62;93608.53;523988;28;789;-42
2023/09/25 01:11:44;;;;;;;5.10;2.60;;;;;;;20.27;66.70;93607.81;524042;28;1019;-42
2023/09/25 01:12:00;;;;;;;3.37;2.60;;;;;;;20.27;66.56;93613.41;526195;28;1089;-42
2023/09/25 01:12:15;;;;;;;3.15;2.63;;;;;;;20.25;66.60;93607.66;526079;28;935;-42
2023/09/25 01:12:31;;;;;;;4.13;2.70;;;;;;;20.25;66.65;93614.00;526239;28;871;-42
2023/09/25 01:12:48;;;;;;;6.05;2.63;;;;;;;20.22;66.49;93612.44;526090;28;951;-42
2023/09/25 01:13:04;;;;;;;5.55;2.67;;;;;;;20.22;66.53;93608.91;526211;28;854;-42
2023/09/25 01:13:20;;;;;;;6.43;2.88;;;;;;;20.22;66.63;93611.69;526252;28;813;-42
2023/09/25 01:13:35;;;;;;;5.38;2.60;;;;;;;20.22;66.42;93611.69;526297;28;797;-42
2023/09/25 01:13:50;;;;;;;2.77;2.40;;;;;;;20.21;66.50;93610.97;526335;28;896;-42
2023/09/25 01:14:06;;;;;;;3.07;2.50;;;;;;;20.21;66.42;93610.97;526302;28;917;-42
2023/09/25 01:14:22;;;;;;;3.58;2.67;;;;;;;20.17;66.47;93607.16;526285;28;883;-42
2023/09/25 01:14:37;;;;;;;2.97;2.67;;;;;;;20.21;66.58;93613.03;526292;28;1089;-42
2023/09/25 01:14:52;;;;;;;4.68;2.97;;;;;;;20.20;66.44;93612.31;526365;28;844;-42
2023/09/25 01:15:08;;;;;;;9.70;3.27;;;;;;;20.16;66.60;93606.41;526315;28;876;-42
2023/09/25 01:15:24;;;;;;;7.72;3.03;;;;;;;20.15;66.51;93604.97;526300;28;794;-42
2023/09/25 01:15:39;;;;;;;5.50;3.23;;;;;;;20.18;66.61;93612.13;526390;28;836;-42
2023/09/25 01:15:54;;;;;;;9.05;3.30;;;;;;;20.18;66.64;93605.81;526252;28;876;-42
2023/09/25 01:16:10;;;;;;;7.07;2.93;;;;;;;20.17;66.63;93604.34;526421;28;766;-42
2023/09/25 01:16:26;;;;;;;4.30;2.80;;;;;;;20.16;66.30;93602.91;526247;28;828;-42
2023/09/25 01:16:42;;;;;;;4.90;2.70;;;;;;;20.16;66.65;93612.03;526265;28;864;-42
2023/09/25 01:16:57;;;;;;;5.43;2.50;;;;;;;20.17;66.49;93607.88;526237;28;931;-42
2023/09/25 01:17:13;;;;;;;4.97;2.58;;;;;;;20.16;66.60;93612.03;526281;28;921;-42
2023/09/25 01:17:28;;;;;;;4.30;2.90;;;;;;;20.09;66.71;93598.25;526302;28;872;-42
2023/09/25 01:17:44;;;;;;;4.63;3.08;;;;;;;20.16;66.53;93612.03;526302;28;840;-42
2023/09/25 01:17:59;;;;;;;4.37;2.87;;;;;;;20.16;66.49;93614.81;526311;28;809;-42